Time,TemperatureF,DewpointF,PressureIn,WindDirection,WindDirectionDegrees,WindSpeedMPH,WindSpeedGustMPH,Humidity,HourlyPrecipIn,Conditions,Clouds,dailyrainin,SoftwareType,DateUTC
2013-05-31 00:21:00,62.0,60.0,29.88,SSE,160,5.0,-999.0,92,0.00,,,-99.99,,2013-05-31 07:21:00,
2013-05-31 00:32:00,62.0,60.0,29.88,SSE,160,5.0,-999.0,92,0.00,,,-99.99,,2013-05-31 07:32:00,
2013-05-31 00:41:00,62.0,60.0,29.88,SSE,160,5.0,-999.0,92,0.00,,,-99.99,,2013-05-31 07:41:00,
2013-05-31 00:52:00,62.0,60.0,29.88,SSE,160,5.0,-999.0,92,0.00,,,-99.99,,2013-05-31 07:52:00,
2013-05-31 01:21:00,61.0,58.0,29.89,SSE,160,4.0,-999.0,91,0.00,,,-99.99,,2013-05-31 08:21:00,
2013-05-31 01:31:00,61.0,58.0,29.89,SSE,160,4.0,-999.0,91,0.00,,,-99.99,,2013-05-31 08:31:00,
2013-05-31 01:42:00,61.0,58.0,29.89,SSE,160,4.0,-999.0,91,0.00,,,-99.99,,2013-05-31 08:42:00,
2013-05-31 01:51:00,61.0,58.0,29.89,SSE,160,4.0,-999.0,91,0.00,,,-99.99,,2013-05-31 08:51:00,
2013-05-31 02:21:00,61.0,59.0,29.88,East,100,6.0,-999.0,92,0.00,,,-99.99,,2013-05-31 09:21:00,
2013-05-31 02:32:00,61.0,59.0,29.88,East,100,6.0,-999.0,92,0.00,,,-99.99,,2013-05-31 09:32:00,
2013-05-31 02:43:00,61.0,59.0,29.88,East,100,6.0,-999.0,92,0.00,,,-99.99,,2013-05-31 09:43:00,
2013-05-31 02:53:00,61.0,59.0,29.88,East,100,6.0,-999.0,92,0.00,,,-99.99,,2013-05-31 09:53:00,
2013-05-31 03:22:00,62.0,59.0,29.87,ESE,120,5.0,-999.0,91,0.00,,,-99.99,,2013-05-31 10:22:00,
2013-05-31 03:33:00,62.0,59.0,29.87,ESE,120,5.0,-999.0,91,0.00,,,-99.99,,2013-05-31 10:33:00,
2013-05-31 03:42:00,62.0,59.0,29.87,ESE,120,5.0,-999.0,91,0.00,,,-99.99,,2013-05-31 10:42:00,
2013-05-31 03:52:00,62.0,59.0,29.87,ESE,120,5.0,-999.0,91,0.00,,,-99.99,,2013-05-31 10:52:00,
2013-05-31 04:22:00,61.0,58.0,29.87,East,100,3.0,-999.0,91,0.00,,,-99.99,,2013-05-31 11:22:00,
2013-05-31 04:32:00,61.0,58.0,29.87,East,100,3.0,-999.0,91,0.00,,,-99.99,,2013-05-31 11:32:00,
2013-05-31 04:42:00,61.0,58.0,29.87,East,100,3.0,-999.0,91,0.00,,,-99.99,,2013-05-31 11:42:00,
2013-05-31 04:52:00,61.0,58.0,29.87,East,100,3.0,-999.0,91,0.00,,,-99.99,,2013-05-31 11:52:00,
2013-05-31 05:21:00,61.0,58.0,29.86,East,100,1.0,-999.0,91,0.00,,,-99.99,,2013-05-31 12:21:00,
2013-05-31 05:31:00,61.0,58.0,29.86,East,100,1.0,-999.0,91,0.00,,,-99.99,,2013-05-31 12:31:00,
2013-05-31 05:41:00,61.0,58.0,29.86,East,100,1.0,-999.0,91,0.00,,,-99.99,,2013-05-31 12:41:00,
2013-05-31 05:51:00,61.0,58.0,29.86,East,100,1.0,-999.0,91,0.00,,,-99.99,,2013-05-31 12:51:00,
2013-05-31 06:21:00,62.0,59.0,29.89,South,170,3.0,-999.0,90,0.00,,,-99.99,,2013-05-31 13:21:00,
2013-05-31 06:32:00,62.0,59.0,29.89,South,170,3.0,-999.0,90,0.00,,,-99.99,,2013-05-31 13:32:00,
2013-05-31 06:42:00,62.0,59.0,29.89,South,170,3.0,-999.0,90,0.00,,,-99.99,,2013-05-31 13:42:00,
2013-05-31 06:52:00,62.0,59.0,29.89,South,170,3.0,-999.0,90,0.00,,,-99.99,,2013-05-31 13:52:00,
2013-05-31 07:21:00,62.0,59.0,29.90,ESE,110,4.0,-999.0,89,0.00,,,-99.99,,2013-05-31 14:21:00,
2013-05-31 07:32:00,62.0,59.0,29.90,ESE,110,4.0,-999.0,89,0.00,,,-99.99,,2013-05-31 14:32:00,
2013-05-31 07:41:00,62.0,59.0,29.90,ESE,110,4.0,-999.0,89,0.00,,,-99.99,,2013-05-31 14:41:00,
2013-05-31 07:52:00,62.0,59.0,29.90,ESE,110,4.0,-999.0,89,0.00,,,-99.99,,2013-05-31 14:52:00,
2013-05-31 08:21:00,63.0,59.0,29.91,SE,140,3.0,-999.0,86,0.00,,,-99.99,,2013-05-31 15:21:00,
2013-05-31 08:33:00,63.0,59.0,29.91,SE,140,3.0,-999.0,86,0.00,,,-99.99,,2013-05-31 15:33:00,
2013-05-31 08:43:00,63.0,59.0,29.91,SE,140,3.0,-999.0,86,0.00,,,-99.99,,2013-05-31 15:43:00,
2013-05-31 08:53:00,63.0,59.0,29.91,SE,140,3.0,-999.0,86,0.00,,,-99.99,,2013-05-31 15:53:00,
2013-05-31 09:22:00,65.0,59.0,29.91,SSE,160,2.0,-999.0,82,0.00,,,-99.99,,2013-05-31 16:22:00,
2013-05-31 09:33:00,65.0,59.0,29.91,SSE,160,2.0,-999.0,82,0.00,,,-99.99,,2013-05-31 16:33:00,
2013-05-31 09:42:00,65.0,59.0,29.91,SSE,160,2.0,-999.0,82,0.00,,,-99.99,,2013-05-31 16:42:00,
2013-05-31 09:52:00,65.0,59.0,29.91,SSE,160,2.0,-999.0,82,0.00,,,-99.99,,2013-05-31 16:52:00,
2013-05-31 10:22:00,68.0,61.0,29.91,East,100,1.0,-999.0,77,0.00,,,-99.99,,2013-05-31 17:22:00,
2013-05-31 10:32:00,68.0,61.0,29.91,East,100,1.0,-999.0,77,0.00,,,-99.99,,2013-05-31 17:32:00,
2013-05-31 10:42:00,68.0,61.0,29.91,East,100,1.0,-999.0,77,0.00,,,-99.99,,2013-05-31 17:42:00,
2013-05-31 10:52:00,68.0,61.0,29.91,East,100,1.0,-999.0,77,0.00,,,-99.99,,2013-05-31 17:52:00,
2013-05-31 11:22:00,70.0,61.0,29.90,West,260,2.0,-999.0,74,0.00,,,-99.99,,2013-05-31 18:22:00,
2013-05-31 11:31:00,70.0,61.0,29.90,West,260,2.0,-999.0,74,0.00,,,-99.99,,2013-05-31 18:31:00,
2013-05-31 11:41:00,70.0,61.0,29.90,West,260,2.0,-999.0,74,0.00,,,-99.99,,2013-05-31 18:41:00,
2013-05-31 11:52:00,70.0,61.0,29.90,West,260,2.0,-999.0,74,0.00,,,-99.99,,2013-05-31 18:52:00,
2013-05-31 12:22:00,70.0,62.0,29.89,East,80,3.0,-999.0,75,0.00,,,-99.99,,2013-05-31 19:22:00,
2013-05-31 12:32:00,70.0,62.0,29.89,East,80,3.0,-999.0,75,0.00,,,-99.99,,2013-05-31 19:32:00,
2013-05-31 12:42:00,70.0,62.0,29.89,East,80,3.0,-999.0,75,0.00,,,-99.99,,2013-05-31 19:42:00,
2013-05-31 12:52:00,70.0,62.0,29.89,East,80,3.0,-999.0,75,0.00,,,-99.99,,2013-05-31 19:52:00,
2013-05-31 13:22:00,69.0,61.0,29.88,West,270,9.0,-999.0,77,0.00,,,-99.99,,2013-05-31 20:22:00,
2013-05-31 13:31:00,69.0,61.0,29.88,West,270,9.0,-999.0,77,0.00,,,-99.99,,2013-05-31 20:31:00,
2013-05-31 13:41:00,69.0,61.0,29.88,West,270,9.0,-999.0,77,0.00,,,-99.99,,2013-05-31 20:41:00,
2013-05-31 13:51:00,69.0,61.0,29.88,West,270,9.0,-999.0,77,0.00,,,-99.99,,2013-05-31 20:51:00,
2013-05-31 14:22:00,70.0,62.0,29.86,East,90,3.0,-999.0,76,0.00,,,-99.99,,2013-05-31 21:22:00,
2013-05-31 14:32:00,70.0,62.0,29.86,East,90,3.0,-999.0,76,0.00,,,-99.99,,2013-05-31 21:32:00,
2013-05-31 14:42:00,70.0,62.0,29.86,East,90,3.0,-999.0,76,0.00,,,-99.99,,2013-05-31 21:42:00,
2013-05-31 14:53:00,70.0,62.0,29.86,East,90,3.0,-999.0,76,0.00,,,-99.99,,2013-05-31 21:53:00,
2013-05-31 15:22:00,71.0,62.0,29.86,West,270,7.0,-999.0,73,0.00,,,-99.99,,2013-05-31 22:22:00,
2013-05-31 15:33:00,71.0,62.0,29.86,West,270,7.0,-999.0,73,0.00,,,-99.99,,2013-05-31 22:33:00,
2013-05-31 15:42:00,71.0,62.0,29.86,West,270,7.0,-999.0,73,0.00,,,-99.99,,2013-05-31 22:42:00,
2013-05-31 15:52:00,71.0,62.0,29.86,West,270,7.0,-999.0,73,0.00,,,-99.99,,2013-05-31 22:52:00,
2013-05-31 16:21:00,70.0,62.0,29.84,ENE,60,2.0,-999.0,76,0.00,,,-99.99,,2013-05-31 23:21:00,
2013-05-31 16:32:00,70.0,62.0,29.84,ENE,60,2.0,-999.0,76,0.00,,,-99.99,,2013-05-31 23:32:00,
2013-05-31 16:42:00,70.0,62.0,29.84,ENE,60,2.0,-999.0,76,0.00,,,-99.99,,2013-05-31 23:42:00,
2013-05-31 16:52:00,70.0,62.0,29.84,ENE,60,2.0,-999.0,76,0.00,,,-99.99,,2013-05-31 23:52:00,
2013-05-31 18:21:00,70.0,62.0,29.82,North,10,3.0,-999.0,77,0.00,,,-99.99,,2013-06-01 01:21:00,
2013-05-31 18:32:00,70.0,62.0,29.82,North,10,3.0,-999.0,77,0.00,,,-99.99,,2013-06-01 01:32:00,
2013-05-31 18:42:00,70.0,62.0,29.82,North,10,3.0,-999.0,77,0.00,,,-99.99,,2013-06-01 01:42:00,
2013-05-31 18:52:00,70.0,62.0,29.82,North,10,3.0,-999.0,77,0.00,,,-99.99,,2013-06-01 01:52:00,
2013-05-31 19:21:00,67.0,61.0,29.83,ENE,70,2.0,-999.0,82,0.00,,,-99.99,,2013-06-01 02:21:00,
2013-05-31 19:32:00,67.0,61.0,29.83,ENE,70,2.0,-999.0,82,0.00,,,-99.99,,2013-06-01 02:32:00,
2013-05-31 19:42:00,67.0,61.0,29.83,ENE,70,2.0,-999.0,82,0.00,,,-99.99,,2013-06-01 02:42:00,
2013-05-31 19:51:00,67.0,61.0,29.83,ENE,70,2.0,-999.0,82,0.00,,,-99.99,,2013-06-01 02:51:00,
2013-05-31 20:21:00,65.0,62.0,29.84,West,260,2.0,-999.0,89,0.00,,,-99.99,,2013-06-01 03:21:00,
2013-05-31 20:33:00,65.0,62.0,29.84,West,260,2.0,-999.0,89,0.00,,,-99.99,,2013-06-01 03:33:00,
2013-05-31 20:43:00,65.0,62.0,29.84,West,260,2.0,-999.0,89,0.00,,,-99.99,,2013-06-01 03:43:00,
2013-05-31 20:53:00,65.0,62.0,29.84,West,260,2.0,-999.0,89,0.00,,,-99.99,,2013-06-01 03:53:00,
2013-05-31 21:23:00,64.0,61.0,29.86,SSE,150,3.0,-999.0,90,0.00,,,-99.99,,2013-06-01 04:23:00,
2013-05-31 21:33:00,64.0,61.0,29.86,SSE,150,3.0,-999.0,90,0.00,,,-99.99,,2013-06-01 04:33:00,
2013-05-31 21:42:00,64.0,61.0,29.86,SSE,150,3.0,-999.0,90,0.00,,,-99.99,,2013-06-01 04:42:00,
2013-05-31 21:53:00,64.0,61.0,29.86,SSE,150,3.0,-999.0,90,0.00,,,-99.99,,2013-06-01 04:53:00,
2013-05-31 22:22:00,64.0,61.0,29.87,ESE,120,2.0,-999.0,90,0.00,,,-99.99,,2013-06-01 05:22:00,
2013-05-31 22:32:00,64.0,61.0,29.87,ESE,120,2.0,-999.0,90,0.00,,,-99.99,,2013-06-01 05:32:00,
2013-05-31 22:42:00,64.0,61.0,29.87,ESE,120,2.0,-999.0,90,0.00,,,-99.99,,2013-06-01 05:42:00,
2013-05-31 22:52:00,64.0,61.0,29.87,ESE,120,2.0,-999.0,90,0.00,,,-99.99,,2013-06-01 05:52:00,
2013-05-31 23:22:00,64.0,61.0,29.86,SSE,160,1.0,-999.0,90,0.00,,,-99.99,,2013-06-01 06:22:00,
2013-05-31 23:32:00,64.0,61.0,29.86,SSE,160,1.0,-999.0,90,0.00,,,-99.99,,2013-06-01 06:32:00,
2013-05-31 23:42:00,64.0,61.0,29.86,SSE,160,1.0,-999.0,90,0.00,,,-99.99,,2013-06-01 06:42:00,
2013-05-31 23:52:00,64.0,61.0,29.86,SSE,160,1.0,-999.0,90,0.00,,,-99.99,,2013-06-01 06:52:00,